Time;durP1;ratioP1;P1;durP2;ratioP2;P2;SDS_P1;SDS_P2;PMS_P1;PMS_P2;Temp;Humidity;BMP_temperature;BMP_pressure;BME280_temperature;BME280_humidity;BME280_pressure;Samples;Min_cycle;Max_cycle;Signal;HPM_P1;HPM_P2
2022/01/26 00:06:35;;;;;;;63.60;36.03;;;0.70;99.10;;;;;;5134607;27;20110;-73
2022/01/26 00:09:02;;;;;;;60.83;36.92;;;0.80;99.80;;;;;;5115264;27;20385;-74
2022/01/26 00:11:30;;;;;;;63.45;35.63;;;0.70;99.60;;;;;;5133014;27;20035;-74
2022/01/26 00:14:01;;;;;;;58.92;35.90;;;0.70;99.90;;;;;;5134538;27;20019;-75
2022/01/26 00:16:36;;;;;;;61.33;35.03;;;0.70;99.90;;;;;;5134348;27;20023;-73
2022/01/26 00:19:04;;;;;;;59.92;35.38;;;0.80;99.70;;;;;;5116325;27;20023;-69
2022/01/26 00:21:42;;;;;;;54.85;33.53;;;0.80;99.90;;;;;;5135507;27;20062;-73
2022/01/26 00:29:37;;;;;;;53.95;34.58;;;0.80;99.90;;;;;;5134366;27;20023;-72
2022/01/26 00:40:36;;;;;;;52.13;30.95;;;0.80;99.90;;;;;;5133886;27;20047;-72
2022/01/26 00:43:15;;;;;;;50.00;30.52;;;0.80;99.90;;;;;;5134287;27;20023;-72
2022/01/26 00:45:41;;;;;;;50.38;30.88;;;0.80;99.50;;;;;;5134112;27;20031;-72
2022/01/26 00:48:09;;;;;;;48.72;28.15;;;0.80;99.90;;;;;;5134036;27;20052;-73
2022/01/26 00:50:38;;;;;;;47.50;26.52;;;0.80;99.90;;;;;;5098474;27;20027;-71
2022/01/26 00:53:05;;;;;;;46.72;27.60;;;0.80;99.90;;;;;;5098551;27;20023;-72
2022/01/26 00:55:32;;;;;;;49.00;25.35;;;0.80;99.90;;;;;;5134223;27;20543;-72
2022/01/26 00:57:58;;;;;;;45.08;25.02;;;0.80;99.90;;;;;;5133862;27;20476;-71
2022/01/26 01:00:26;;;;;;;45.92;25.42;;;0.70;99.90;;;;;;5133802;27;20039;-73
2022/01/26 01:02:55;;;;;;;40.72;23.25;;;0.80;99.90;;;;;;5133806;27;20026;-73
2022/01/26 01:05:48;;;;;;;40.60;23.63;;;0.70;99.90;;;;;;5133850;27;20027;-74
2022/01/26 01:08:16;;;;;;;36.60;22.10;;;0.70;99.90;;;;;;5133343;27;20031;-75
2022/01/26 01:10:45;;;;;;;40.10;22.50;;;0.80;99.90;;;;;;5133600;27;20035;-74
2022/01/26 01:13:16;;;;;;;34.85;20.88;;;0.80;99.90;;;;;;5133712;27;20025;-75
2022/01/26 01:15:43;;;;;;;36.25;20.30;;;0.80;99.90;;;;;;5133573;27;20369;-74
2022/01/26 01:18:17;;;;;;;36.38;20.02;;;0.80;99.90;;;;;;5133271;27;20028;-72
2022/01/26 01:30:57;;;;;;;32.78;19.38;;;0.80;99.90;;;;;;5133431;27;20031;-73
2022/01/26 01:33:30;;;;;;;32.83;17.90;;;0.80;99.90;;;;;;5133572;27;20025;-73
2022/01/26 01:35:58;;;;;;;32.25;17.55;;;0.80;99.90;;;;;;5133390;27;20061;-73
2022/01/26 01:38:27;;;;;;;30.13;17.17;;;0.80;99.90;;;;;;5133335;27;20026;-72
2022/01/26 01:40:54;;;;;;;29.02;16.67;;;0.80;99.90;;;;;;5132516;27;20078;-73
2022/01/26 01:43:21;;;;;;;29.88;17.30;;;0.80;99.90;;;;;;5133023;28;20027;-72
2022/01/26 01:45:51;;;;;;;33.88;17.58;;;0.80;99.90;;;;;;5133370;28;20050;-72
2022/01/26 01:48:27;;;;;;;31.33;17.55;;;0.80;99.90;;;;;;5133233;28;20106;-73
2022/01/26 01:50:55;;;;;;;27.95;16.83;;;0.80;99.90;;;;;;5114863;28;20038;-72
2022/01/26 01:53:32;;;;;;;32.50;16.95;;;0.80;99.90;;;;;;5123100;28;20038;-73
2022/01/26 01:56:00;;;;;;;28.13;17.55;;;0.80;99.90;;;;;;5127005;28;20086;-73
2022/01/26 01:58:28;;;;;;;28.17;16.75;;;0.80;99.90;;;;;;5133102;28;20323;-70
2022/01/26 02:00:54;;;;;;;30.42;16.30;;;0.80;99.90;;;;;;5138902;27;20039;-73
2022/01/26 02:03:19;;;;;;;28.75;15.88;;;0.90;99.90;;;;;;5133201;28;20098;-73
2022/01/26 02:05:54;;;;;;;29.00;14.63;;;0.80;99.90;;;;;;5132987;28;20038;-72
2022/01/26 02:08:20;;;;;;;27.98;16.08;;;0.80;99.90;;;;;;5117971;28;20023;-74
2022/01/26 02:10:50;;;;;;;30.50;15.32;;;0.80;99.90;;;;;;5133466;28;20548;-73
2022/01/26 03:04:50;;;;;;;26.85;16.02;;;0.90;99.90;;;;;;5072839;28;20046;-72
2022/01/26 03:07:24;;;;;;;29.20;15.88;;;0.90;99.90;;;;;;5072623;28;20037;-72
2022/01/26 03:10:01;;;;;;;30.88;17.33;;;0.90;99.90;;;;;;5055641;28;20032;-73
2022/01/26 03:12:45;;;;;;;28.83;17.45;;;0.90;99.90;;;;;;5056103;28;20108;-72
2022/01/26 03:15:21;;;;;;;27.27;15.93;;;0.90;99.90;;;;;;5073484;28;20028;-73
2022/01/26 03:20:25;;;;;;;31.85;17.92;;;1.00;99.90;;;;;;5072238;28;20096;-73
2022/01/26 03:28:45;;;;;;;35.95;20.88;;;0.90;99.90;;;;;;5072276;28;20036;-71
2022/01/26 03:32:12;;;;;;;33.58;18.25;;;1.00;99.90;;;;;;5094196;27;20039;-73
2022/01/26 03:34:03;;;;;;;33.50;19.38;;;0.90;99.90;;;;;;5113259;27;20043;-74
2022/01/26 03:36:42;;;;;;;30.83;18.00;;;1.00;99.90;;;;;;5130860;27;20042;-74
2022/01/26 03:39:11;;;;;;;30.55;17.95;;;1.00;99.90;;;;;;5117371;27;20029;-73
2022/01/26 03:41:44;;;;;;;27.50;15.57;;;1.00;99.90;;;;;;5135203;27;20051;-73
2022/01/26 03:44:11;;;;;;;30.20;14.55;;;1.00;99.90;;;;;;5135162;27;20031;-72
2022/01/26 03:46:37;;;;;;;26.80;15.30;;;1.00;99.90;;;;;;5135480;27;20507;-74
2022/01/26 03:49:04;;;;;;;22.95;12.98;;;1.00;99.90;;;;;;5134785;27;20047;-73
2022/01/26 03:51:30;;;;;;;24.25;13.25;;;1.00;99.90;;;;;;5135000;27;20030;-74
2022/01/26 03:53:56;;;;;;;25.30;12.80;;;1.00;99.90;;;;;;5134922;27;20027;-73
2022/01/26 03:56:22;;;;;;;25.30;12.65;;;1.00;99.90;;;;;;5134970;27;20031;-73
2022/01/26 03:58:48;;;;;;;23.60;12.18;;;1.00;99.90;;;;;;5134608;27;20034;-73
2022/01/26 04:01:14;;;;;;;23.23;13.73;;;1.00;99.90;;;;;;5133833;27;20027;-74
2022/01/26 04:03:44;;;;;;;24.25;13.23;;;1.00;99.70;;;;;;5116495;27;20030;-74
2022/01/26 04:06:10;;;;;;;23.05;13.13;;;1.00;99.90;;;;;;5134611;27;20024;-70
2022/01/26 04:08:38;;;;;;;24.08;12.48;;;1.00;99.90;;;;;;5116769;27;20035;-73
2022/01/26 04:13:34;;;;;;;24.98;13.35;;;1.00;99.90;;;;;;5135457;27;20397;-73
2022/01/26 04:16:00;;;;;;;24.08;12.55;;;1.00;99.90;;;;;;5099144;27;20015;-73
2022/01/26 04:18:36;;;;;;;23.23;12.65;;;1.00;99.90;;;;;;5115889;27;20046;-73
2022/01/26 04:21:13;;;;;;;21.50;11.85;;;1.00;99.90;;;;;;5138136;27;20043;-72
2022/01/26 04:26:05;;;;;;;25.90;13.95;;;1.00;99.40;;;;;;5134086;27;20102;-73
2022/01/26 04:28:41;;;;;;;22.10;12.93;;;1.00;99.90;;;;;;5135452;27;20449;-74
2022/01/26 04:31:11;;;;;;;22.92;13.32;;;1.00;99.90;;;;;;5115756;27;20031;-74
2022/01/26 04:33:37;;;;;;;26.77;13.60;;;1.00;99.70;;;;;;5116112;27;20015;-74
2022/01/26 04:36:08;;;;;;;29.15;13.90;;;1.00;99.90;;;;;;5134132;27;20023;-72
2022/01/26 04:38:41;;;;;;;25.42;14.98;;;1.00;99.10;;;;;;5133821;27;20076;-73
2022/01/26 04:43:39;;;;;;;26.67;14.40;;;1.00;99.30;;;;;;5134212;27;20042;-73
2022/01/26 04:46:06;;;;;;;24.08;14.73;;;1.00;99.80;;;;;;5133027;27;20387;-73
2022/01/26 04:48:32;;;;;;;23.42;14.32;;;1.00;99.40;;;;;;5133462;27;20050;-73
2022/01/26 04:50:58;;;;;;;22.35;13.85;;;1.00;99.20;;;;;;5133173;27;20066;-74
2022/01/26 04:53:25;;;;;;;25.73;14.52;;;1.00;99.60;;;;;;5115609;27;20037;-73
2022/01/26 04:55:52;;;;;;;27.40;14.48;;;1.00;99.90;;;;;;5135817;27;20094;-73
2022/01/26 04:58:18;;;;;;;27.30;15.07;;;1.00;99.90;;;;;;5133271;27;20015;-72
2022/01/26 05:00:44;;;;;;;28.23;14.63;;;1.10;99.90;;;;;;5135685;27;20027;-73
2022/01/26 05:03:11;;;;;;;26.50;16.75;;;1.00;99.50;;;;;;5146626;27;20050;-74
2022/01/26 05:05:38;;;;;;;32.92;17.55;;;1.10;99.50;;;;;;5141994;27;20612;-73
2022/01/26 05:08:04;;;;;;;31.85;16.77;;;1.10;99.40;;;;;;5115192;27;20110;-73
2022/01/26 05:10:30;;;;;;;35.50;17.88;;;1.10;99.90;;;;;;5136689;27;20023;-72
2022/01/26 05:12:56;;;;;;;30.20;18.05;;;1.10;99.70;;;;;;5133534;27;20035;-71
2022/01/26 05:15:28;;;;;;;31.50;18.83;;;1.10;99.30;;;;;;5132816;27;20023;-70
2022/01/26 05:17:54;;;;;;;32.95;19.55;;;1.10;99.40;;;;;;5130287;27;20027;-73
2022/01/26 05:20:19;;;;;;;36.40;20.35;;;1.10;99.30;;;;;;5130255;27;20045;-72
2022/01/26 05:22:45;;;;;;;34.95;19.45;;;1.10;99.40;;;;;;5130416;27;20032;-68
2022/01/26 05:25:16;;;;;;;34.35;19.42;;;1.00;98.90;;;;;;5132563;27;20020;-73
2022/01/26 05:27:43;;;;;;;28.90;18.65;;;1.10;99.40;;;;;;5097410;28;20031;-72
2022/01/26 05:30:09;;;;;;;28.95;17.40;;;1.10;99.50;;;;;;5132950;27;20529;-73
2022/01/26 05:32:39;;;;;;;36.38;18.55;;;1.10;99.40;;;;;;5115068;27;20106;-73
2022/01/26 05:35:05;;;;;;;32.35;19.15;;;1.10;99.00;;;;;;5097825;28;20023;-68
2022/01/26 05:37:31;;;;;;;34.92;18.10;;;1.10;99.50;;;;;;5132921;27;20479;-69
2022/01/26 05:39:57;;;;;;;30.33;18.15;;;1.10;99.20;;;;;;5132890;27;20030;-72
2022/01/26 05:42:24;;;;;;;29.58;16.85;;;1.10;99.20;;;;;;5132940;27;20027;-72
2022/01/26 05:44:50;;;;;;;31.52;17.17;;;1.10;99.70;;;;;;5132769;28;20031;-69
2022/01/26 05:47:19;;;;;;;33.42;18.42;;;1.10;99.80;;;;;;5133107;28;20078;-72
2022/01/26 05:49:45;;;;;;;32.78;18.85;;;1.10;99.90;;;;;;5132952;27;20027;-69
2022/01/26 05:52:11;;;;;;;33.25;18.65;;;1.10;99.90;;;;;;5132952;28;20106;-72
2022/01/26 05:54:38;;;;;;;34.90;19.33;;;1.10;99.90;;;;;;5133014;28;20433;-72
2022/01/26 05:57:04;;;;;;;32.70;19.05;;;1.10;99.90;;;;;;5095232;28;20088;-72
2022/01/26 05:59:32;;;;;;;32.90;19.90;;;1.00;99.90;;;;;;5116351;28;20073;-72
2022/01/26 06:01:58;;;;;;;35.42;19.05;;;1.00;99.90;;;;;;5116076;28;20040;-73
2022/01/26 06:04:24;;;;;;;31.00;18.75;;;1.10;99.90;;;;;;5116326;28;20026;-71
2022/01/26 06:06:50;;;;;;;32.22;19.17;;;1.10;99.90;;;;;;5116271;28;20042;-71
2022/01/26 06:09:16;;;;;;;33.92;19.90;;;1.10;99.90;;;;;;5116232;28;20030;-73
2022/01/26 06:11:42;;;;;;;35.60;19.48;;;1.10;99.90;;;;;;5116477;28;20024;-71
2022/01/26 06:14:08;;;;;;;36.83;20.77;;;1.10;99.90;;;;;;5116620;28;20035;-72
2022/01/26 06:16:34;;;;;;;34.67;19.02;;;1.20;99.90;;;;;;5116588;28;20031;-72
2022/01/26 06:18:59;;;;;;;31.65;18.13;;;1.20;99.90;;;;;;5116255;28;20059;-73
2022/01/26 06:21:25;;;;;;;31.95;19.00;;;1.10;99.90;;;;;;5115574;28;20063;-72
2022/01/26 06:23:51;;;;;;;36.28;19.80;;;1.20;99.90;;;;;;5116197;28;20051;-73
2022/01/26 06:26:17;;;;;;;35.90;19.23;;;1.20;99.90;;;;;;5116357;28;20024;-73
2022/01/26 06:28:43;;;;;;;36.50;20.30;;;1.10;99.90;;;;;;5115721;28;20457;-72
2022/01/26 06:31:11;;;;;;;34.17;20.42;;;1.20;99.90;;;;;;5115907;28;20048;-74
2022/01/26 06:33:41;;;;;;;38.92;18.83;;;1.20;99.90;;;;;;5116136;28;20024;-69
2022/01/26 06:36:12;;;;;;;37.67;19.70;;;1.20;99.90;;;;;;5124830;28;20425;-73
2022/01/26 06:38:43;;;;;;;33.65;18.65;;;1.20;99.90;;;;;;5116122;28;20042;-72
2022/01/26 06:41:10;;;;;;;33.50;18.17;;;1.20;99.90;;;;;;5098735;28;20609;-71
2022/01/26 06:43:45;;;;;;;37.33;19.52;;;1.20;99.90;;;;;;5131077;27;20472;-72
2022/01/26 06:46:17;;;;;;;37.15;21.65;;;1.30;99.90;;;;;;5136266;27;20027;-72
2022/01/26 06:48:59;;;;;;;42.58;23.40;;;1.30;99.90;;;;;;5135089;27;20030;-73
2022/01/26 06:51:25;;;;;;;40.13;23.00;;;1.30;99.90;;;;;;5136149;27;20062;-73
2022/01/26 06:53:51;;;;;;;35.88;21.83;;;1.30;99.90;;;;;;5117374;27;20063;-73
2022/01/26 06:56:18;;;;;;;38.05;20.65;;;1.30;99.90;;;;;;5147987;27;20030;-73
2022/01/26 06:58:45;;;;;;;36.42;20.40;;;1.30;99.90;;;;;;5122075;27;20429;-73
2022/01/26 07:01:10;;;;;;;39.88;22.85;;;1.30;99.90;;;;;;5135751;27;20028;-73
2022/01/26 07:03:40;;;;;;;34.55;21.30;;;1.30;99.90;;;;;;5149478;27;20033;-72
2022/01/26 07:06:08;;;;;;;34.15;21.10;;;1.30;99.90;;;;;;5147644;27;20027;-73
2022/01/26 07:08:35;;;;;;;37.30;23.02;;;1.30;99.90;;;;;;5120364;27;20019;-71
2022/01/26 07:11:01;;;;;;;41.60;21.80;;;1.40;99.90;;;;;;5135659;27;20024;-72
2022/01/26 07:13:28;;;;;;;41.80;22.45;;;1.30;99.90;;;;;;5135892;27;20074;-71
2022/01/26 07:21:27;;;;;;;41.35;25.15;;;1.40;99.90;;;;;;5135784;27;20050;-73
2022/01/26 07:23:55;;;;;;;41.58;25.02;;;1.40;99.90;;;;;;5135446;27;20396;-74
2022/01/26 07:26:22;;;;;;;40.80;24.98;;;1.50;99.90;;;;;;5135920;27;20031;-73
2022/01/26 07:28:47;;;;;;;38.85;24.50;;;1.50;99.90;;;;;;5135480;27;20019;-73
2022/01/26 07:31:13;;;;;;;45.38;25.52;;;1.50;99.90;;;;;;5135791;27;20491;-73
2022/01/26 07:33:41;;;;;;;39.80;23.48;;;1.50;99.90;;;;;;5136060;27;20372;-73
2022/01/26 07:36:07;;;;;;;47.70;27.25;;;1.60;99.90;;;;;;5135737;27;20035;-73
2022/01/26 07:38:33;;;;;;;45.85;23.88;;;1.60;99.90;;;;;;5135499;27;20064;-73
2022/01/26 07:40:59;;;;;;;37.30;22.23;;;1.70;99.90;;;;;;5134978;27;20117;-73
2022/01/26 07:43:25;;;;;;;41.88;23.27;;;1.60;99.90;;;;;;5135457;27;20574;-73
2022/01/26 07:45:51;;;;;;;35.38;23.33;;;1.70;99.90;;;;;;5135342;27;20038;-73
2022/01/26 07:48:17;;;;;;;42.45;23.08;;;1.60;99.90;;;;;;5115879;27;20015;-73
2022/01/26 07:50:45;;;;;;;42.25;24.23;;;1.70;99.90;;;;;;5134311;27;20551;-73
2022/01/26 07:53:16;;;;;;;40.80;24.30;;;1.70;99.90;;;;;;5134881;27;20015;-72
2022/01/26 07:55:43;;;;;;;45.30;25.88;;;1.70;99.90;;;;;;5132400;27;20039;-73
2022/01/26 07:58:10;;;;;;;42.40;25.90;;;1.70;99.90;;;;;;5134737;27;20503;-72
2022/01/26 08:00:37;;;;;;;42.88;24.30;;;1.70;99.90;;;;;;5134722;27;20088;-72
2022/01/26 08:03:04;;;;;;;41.47;24.08;;;1.70;99.90;;;;;;5137669;27;20080;-72
2022/01/26 08:05:30;;;;;;;38.30;24.52;;;1.70;99.90;;;;;;5116195;27;20468;-72
2022/01/26 08:07:56;;;;;;;47.50;26.42;;;1.70;99.90;;;;;;5133624;27;20055;-73
2022/01/26 08:10:22;;;;;;;42.17;26.08;;;1.70;99.90;;;;;;5103390;27;20453;-71
2022/01/26 08:12:49;;;;;;;41.10;26.17;;;1.70;99.90;;;;;;5114478;27;20062;-72
2022/01/26 08:15:15;;;;;;;38.90;24.63;;;1.70;99.90;;;;;;5129937;27;20022;-73
2022/01/26 08:17:42;;;;;;;41.08;24.08;;;1.80;99.90;;;;;;5113526;27;20023;-73
2022/01/26 08:20:10;;;;;;;40.88;23.35;;;1.80;99.90;;;;;;5132116;27;20075;-71
2022/01/26 08:22:36;;;;;;;42.75;24.15;;;1.80;99.90;;;;;;5143170;27;20515;-72
2022/01/26 08:25:03;;;;;;;43.20;23.80;;;1.80;99.90;;;;;;5145445;27;20411;-72
2022/01/26 08:27:36;;;;;;;39.33;24.02;;;1.80;99.90;;;;;;5115773;27;20506;-72
2022/01/26 08:30:08;;;;;;;41.45;23.90;;;1.80;99.90;;;;;;5134000;27;20064;-72
2022/01/26 08:32:34;;;;;;;36.60;23.83;;;1.70;99.90;;;;;;5127533;27;20102;-70
2022/01/26 08:35:00;;;;;;;42.17;25.35;;;1.80;99.90;;;;;;5132885;27;20063;-70
2022/01/26 08:37:26;;;;;;;41.55;23.20;;;1.70;99.90;;;;;;5132021;27;20520;-73
2022/01/26 08:39:52;;;;;;;50.30;29.63;;;1.70;99.90;;;;;;5133318;27;20027;-74
2022/01/26 08:42:17;;;;;;;52.65;31.80;;;1.60;99.90;;;;;;5134009;27;20031;-72
2022/01/26 08:44:43;;;;;;;49.70;29.30;;;1.70;99.90;;;;;;5126053;27;20416;-73
2022/01/26 08:47:09;;;;;;;45.97;25.30;;;1.70;99.90;;;;;;5133897;27;20516;-73
2022/01/26 08:49:35;;;;;;;59.90;37.50;;;1.70;99.90;;;;;;5133716;27;20023;-71
2022/01/26 08:52:01;;;;;;;58.90;35.42;;;1.70;99.90;;;;;;5132734;27;20482;-73
2022/01/26 08:54:28;;;;;;;55.40;31.38;;;1.70;99.90;;;;;;5137387;27;20469;-74
2022/01/26 08:57:01;;;;;;;49.15;28.98;;;1.70;99.90;;;;;;5133552;27;20020;-72
2022/01/26 08:59:27;;;;;;;43.92;26.90;;;1.70;99.90;;;;;;5132972;27;20042;-73
2022/01/26 09:01:53;;;;;;;42.65;25.73;;;1.70;99.90;;;;;;5097350;27;20035;-73
2022/01/26 09:04:19;;;;;;;40.47;24.45;;;1.70;99.90;;;;;;5133540;27;20456;-73
2022/01/26 09:06:54;;;;;;;40.22;25.13;;;1.70;99.90;;;;;;5129669;27;20075;-70
2022/01/26 09:09:23;;;;;;;42.10;24.80;;;1.70;99.90;;;;;;5132879;27;20020;-73
2022/01/26 09:11:50;;;;;;;55.33;26.92;;;1.70;99.90;;;;;;5132847;27;20099;-73
2022/01/26 09:14:22;;;;;;;43.20;25.95;;;1.80;99.90;;;;;;5133392;27;20031;-73
2022/01/26 09:16:51;;;;;;;44.47;25.05;;;1.80;99.90;;;;;;5133272;27;20015;-74
2022/01/26 09:19:28;;;;;;;45.72;25.30;;;1.80;99.90;;;;;;5115017;27;20476;-73
2022/01/26 09:21:57;;;;;;;40.28;25.55;;;1.90;99.90;;;;;;5114973;27;20412;-74
2022/01/26 09:24:26;;;;;;;45.20;26.58;;;1.90;99.90;;;;;;5133269;27;20402;-73
2022/01/26 09:26:52;;;;;;;48.55;27.02;;;2.00;99.90;;;;;;5133404;27;20110;-74
2022/01/26 09:29:18;;;;;;;41.05;24.95;;;2.00;99.90;;;;;;5133113;27;20023;-71
2022/01/26 09:31:47;;;;;;;43.08;25.67;;;2.10;99.90;;;;;;5145178;27;20034;-74
2022/01/26 09:34:16;;;;;;;43.00;25.75;;;2.10;99.90;;;;;;5132232;27;20022;-73
2022/01/26 09:36:42;;;;;;;41.63;26.75;;;2.10;99.90;;;;;;5130551;27;20027;-72
2022/01/26 09:39:08;;;;;;;46.80;25.70;;;2.00;99.90;;;;;;5131696;27;20034;-72
2022/01/26 09:41:37;;;;;;;42.40;26.42;;;2.00;99.90;;;;;;5130780;27;20047;-72
2022/01/26 09:44:04;;;;;;;44.97;26.80;;;2.00;99.90;;;;;;5113186;28;20032;-70
2022/01/26 09:46:31;;;;;;;42.05;26.17;;;2.10;99.90;;;;;;5131169;28;20031;-73
2022/01/26 09:48:58;;;;;;;45.80;26.85;;;2.20;99.90;;;;;;5131641;28;20051;-72
2022/01/26 09:51:24;;;;;;;44.50;27.38;;;2.10;99.90;;;;;;5131919;28;20031;-69
2022/01/26 09:54:08;;;;;;;40.58;23.63;;;2.20;99.90;;;;;;5113026;28;20473;-73
2022/01/26 09:56:35;;;;;;;34.75;21.77;;;2.20;99.90;;;;;;5131997;28;20053;-71
2022/01/26 09:59:00;;;;;;;37.85;22.20;;;2.30;99.90;;;;;;5131548;28;20473;-70
2022/01/26 10:01:26;;;;;;;39.35;22.02;;;2.20;99.90;;;;;;5131119;28;20046;-70
2022/01/26 10:03:53;;;;;;;36.40;20.52;;;2.20;99.90;;;;;;5132285;28;20019;-74
2022/01/26 10:06:27;;;;;;;36.80;22.25;;;2.20;99.90;;;;;;5132316;28;20070;-73
2022/01/26 10:09:03;;;;;;;38.38;23.27;;;2.20;99.90;;;;;;5131200;28;20095;-76
2022/01/26 10:17:26;;;;;;;39.28;23.70;;;2.20;99.90;;;;;;5131679;28;20069;-73
2022/01/26 10:20:00;;;;;;;41.38;22.50;;;2.20;99.90;;;;;;5130105;28;20143;-75
2022/01/26 10:22:28;;;;;;;38.72;23.70;;;2.30;99.90;;;;;;5131491;28;20471;-75
2022/01/26 10:25:19;;;;;;;41.70;24.13;;;2.30;99.90;;;;;;5113841;28;20023;-75
2022/01/26 10:27:51;;;;;;;38.40;22.73;;;2.30;99.90;;;;;;5131346;28;20023;-73
2022/01/26 10:30:21;;;;;;;39.70;23.15;;;2.30;99.90;;;;;;5131634;28;20019;-77
2022/01/26 10:32:47;;;;;;;47.58;24.33;;;2.40;99.90;;;;;;5095173;28;20028;-74
2022/01/26 10:35:18;;;;;;;43.13;23.48;;;2.30;99.90;;;;;;5143156;28;20027;-75
2022/01/26 10:37:50;;;;;;;40.20;23.17;;;2.30;99.90;;;;;;5131076;28;20031;-73
2022/01/26 10:40:21;;;;;;;40.17;22.90;;;2.30;99.90;;;;;;5111851;28;20089;-76
2022/01/26 10:43:11;;;;;;;47.28;26.75;;;2.30;99.90;;;;;;5112362;27;20094;-73
2022/01/26 10:48:39;;;;;;;57.33;33.20;;;2.30;99.90;;;;;;5135211;27;20031;-74
2022/01/26 10:53:49;;;;;;;56.85;34.30;;;2.30;99.90;;;;;;5134633;27;20031;-77
2022/01/26 10:56:18;;;;;;;59.95;31.08;;;2.40;99.90;;;;;;5133458;27;20035;-72
2022/01/26 10:58:44;;;;;;;54.92;32.47;;;2.30;99.90;;;;;;5116816;27;20040;-75
2022/01/26 11:01:10;;;;;;;46.13;28.23;;;2.40;99.90;;;;;;5134715;27;20063;-75
2022/01/26 11:03:36;;;;;;;42.53;24.00;;;2.40;99.90;;;;;;5135056;27;20102;-72
2022/01/26 11:06:06;;;;;;;38.25;23.45;;;2.30;99.90;;;;;;5134788;27;20172;-72
2022/01/26 11:08:38;;;;;;;45.63;28.45;;;2.40;99.90;;;;;;5113495;27;20022;-74
2022/01/26 11:11:04;;;;;;;53.70;33.83;;;2.40;99.90;;;;;;5134719;27;20165;-73
2022/01/26 11:13:36;;;;;;;60.28;36.85;;;2.30;99.90;;;;;;5134106;27;20019;-76
2022/01/26 11:16:11;;;;;;;50.63;30.27;;;2.30;99.90;;;;;;5099468;27;20027;-73
2022/01/26 11:18:50;;;;;;;44.35;26.58;;;2.30;99.90;;;;;;5101092;27;20100;-74
2022/01/26 11:21:35;;;;;;;48.25;29.75;;;2.20;99.90;;;;;;5134477;27;20437;-75
2022/01/26 11:24:23;;;;;;;56.25;31.95;;;2.30;99.90;;;;;;5115692;27;20066;-74
2022/01/26 11:27:05;;;;;;;44.20;29.40;;;2.30;99.90;;;;;;5117661;27;20036;-72
2022/01/26 11:29:41;;;;;;;39.90;23.70;;;2.20;99.90;;;;;;5133730;27;20388;-73
2022/01/26 11:32:13;;;;;;;41.05;25.13;;;2.20;99.90;;;;;;5115423;27;20420;-71
2022/01/26 11:34:40;;;;;;;52.33;28.17;;;2.20;99.90;;;;;;5133876;27;20030;-71
2022/01/26 11:37:15;;;;;;;71.82;37.40;;;2.30;99.90;;;;;;5128222;27;20035;-72
2022/01/26 11:45:04;;;;;;;52.67;29.90;;;2.40;99.90;;;;;;5131397;27;20031;-72
2022/01/26 11:45:30;;;;;;;47.88;28.35;;;2.40;99.90;;;;;;5133317;27;20023;-73
2022/01/26 11:48:03;;;;;;;45.40;28.23;;;2.40;99.90;;;;;;5133133;27;20023;-72
2022/01/26 11:50:30;;;;;;;57.80;32.58;;;2.40;99.90;;;;;;5115242;27;20031;-76
2022/01/26 11:53:00;;;;;;;54.97;33.25;;;2.40;99.90;;;;;;5115036;27;20019;-72
2022/01/26 11:55:34;;;;;;;42.22;27.00;;;2.50;99.90;;;;;;5133136;27;20027;-71
2022/01/26 11:58:11;;;;;;;36.75;23.95;;;2.40;99.90;;;;;;5133625;27;20020;-72
2022/01/26 12:00:46;;;;;;;52.45;32.10;;;2.40;99.90;;;;;;5133172;27;20037;-70
2022/01/26 12:03:27;;;;;;;55.30;30.65;;;2.40;99.90;;;;;;5133247;27;20477;-73
2022/01/26 12:05:56;;;;;;;45.45;28.33;;;2.50;99.90;;;;;;5131901;27;20019;-71
2022/01/26 12:08:35;;;;;;;56.50;36.22;;;2.50;99.90;;;;;;5113445;27;20629;-68
2022/01/26 12:11:03;;;;;;;52.10;30.05;;;2.50;99.90;;;;;;5129518;27;20023;-68
2022/01/26 12:13:31;;;;;;;54.50;35.55;;;2.50;99.90;;;;;;5133700;27;20399;-70
2022/01/26 12:16:06;;;;;;;51.15;31.90;;;2.50;99.90;;;;;;5132121;27;20030;-71
2022/01/26 12:32:47;;;;;;;40.80;25.33;;;2.50;99.90;;;;;;5118615;27;20358;-73
2022/01/26 12:38:09;;;;;;;40.47;25.40;;;2.60;99.90;;;;;;5133792;27;20027;-72
2022/01/26 12:43:44;;;;;;;51.97;32.08;;;2.50;99.90;;;;;;5133096;27;20030;-77
2022/01/26 12:46:48;;;;;;;50.72;30.40;;;2.50;99.90;;;;;;5144410;27;20019;-74
2022/01/26 12:49:19;;;;;;;51.00;30.45;;;2.40;99.90;;;;;;5118802;27;20026;-73
2022/01/26 12:51:51;;;;;;;53.90;33.17;;;2.50;99.90;;;;;;5142398;27;20064;-73
2022/01/26 12:54:19;;;;;;;54.25;31.95;;;2.50;99.90;;;;;;5129047;27;20019;-73
2022/01/26 12:56:46;;;;;;;57.10;37.70;;;2.50;99.90;;;;;;5118230;27;20027;-73
2022/01/26 12:59:16;;;;;;;59.22;32.50;;;2.40;99.90;;;;;;5133527;27;20027;-73
2022/01/26 13:01:46;;;;;;;50.17;29.67;;;2.50;99.90;;;;;;5115215;27;20077;-72
2022/01/26 13:04:14;;;;;;;49.75;28.00;;;2.40;99.90;;;;;;5134564;27;20019;-74
2022/01/26 13:06:46;;;;;;;41.88;25.48;;;2.40;99.90;;;;;;5134008;27;20356;-72
2022/01/26 13:09:15;;;;;;;47.97;27.48;;;2.50;99.90;;;;;;5145467;27;20102;-73
2022/01/26 13:11:46;;;;;;;42.45;26.58;;;2.50;99.90;;;;;;5117281;27;20438;-73
2022/01/26 13:14:30;;;;;;;53.50;27.65;;;2.40;99.90;;;;;;5128546;27;20024;-73
2022/01/26 13:17:19;;;;;;;45.92;27.85;;;2.50;99.90;;;;;;5129060;27;20042;-73
2022/01/26 13:25:30;;;;;;;60.42;32.78;;;2.40;99.90;;;;;;5114730;27;20055;-73
2022/01/26 13:33:39;;;;;;;56.25;33.15;;;2.40;99.90;;;;;;5133934;27;20055;-72
2022/01/26 13:39:11;;;;;;;46.97;29.70;;;2.40;99.90;;;;;;5052638;28;20040;-72
2022/01/26 13:49:32;;;;;;;44.53;28.65;;;2.40;99.90;;;;;;5065888;28;20487;-75
2022/01/26 13:52:16;;;;;;;47.55;29.88;;;2.40;99.90;;;;;;5066552;28;20029;-72
2022/01/26 13:59:59;;;;;;;50.03;31.73;;;2.50;99.90;;;;;;5069098;28;20049;-71
2022/01/26 14:02:26;;;;;;;50.95;29.45;;;2.50;99.90;;;;;;5066090;28;20262;-72
2022/01/26 14:04:52;;;;;;;48.65;28.10;;;2.50;99.90;;;;;;5066986;28;20029;-73
2022/01/26 14:07:21;;;;;;;45.70;27.77;;;2.50;99.90;;;;;;5068421;28;20083;-73
2022/01/26 14:09:48;;;;;;;38.00;23.70;;;2.50;99.90;;;;;;5035533;28;20392;-72
2022/01/26 14:12:17;;;;;;;48.33;28.92;;;2.40;99.90;;;;;;5051956;28;20025;-72
2022/01/26 14:14:45;;;;;;;58.13;34.90;;;2.40;99.90;;;;;;5068076;28;20613;-73
2022/01/26 14:17:15;;;;;;;65.07;36.30;;;2.50;99.90;;;;;;5114418;27;20027;-73
2022/01/26 14:27:45;;;;;;;49.17;31.27;;;2.50;99.90;;;;;;5137746;27;20530;-74
2022/01/26 14:30:26;;;;;;;43.00;26.77;;;2.50;99.90;;;;;;5118505;27;20027;-73
2022/01/26 14:50:55;;;;;;;51.40;29.98;;;2.50;99.90;;;;;;5149236;27;20054;-73
2022/01/26 15:30:20;;;;;;;47.33;28.92;;;2.50;99.90;;;;;;5117053;27;20464;-72
2022/01/26 15:40:53;;;;;;;46.80;27.63;;;2.40;99.90;;;;;;5129482;27;20027;-72
2022/01/26 15:43:40;;;;;;;48.33;28.63;;;2.40;99.90;;;;;;5133959;27;20106;-72
2022/01/26 15:49:29;;;;;;;55.97;31.45;;;2.40;99.90;;;;;;5128560;27;20098;-71
2022/01/26 16:05:17;;;;;;;50.60;31.98;;;2.40;99.90;;;;;;5134115;27;20058;-76
2022/01/26 16:16:33;;;;;;;56.83;34.00;;;2.40;99.90;;;;;;5070954;28;20072;-76
2022/01/26 16:21:44;;;;;;;57.03;35.60;;;2.50;99.90;;;;;;5053886;28;20040;-74
2022/01/26 16:35:21;;;;;;;64.88;39.42;;;2.40;99.90;;;;;;5070065;28;20120;-74
2022/01/26 16:38:01;;;;;;;57.90;34.88;;;2.50;99.90;;;;;;5070777;28;20028;-71
2022/01/26 17:02:42;;;;;;;61.42;37.30;;;2.50;99.90;;;;;;5030242;28;20111;-75
2022/01/26 17:24:52;;;;;;;68.13;38.35;;;2.50;99.90;;;;;;5069370;28;20037;-75
2022/01/26 17:46:40;;;;;;;62.97;38.85;;;2.50;99.90;;;;;;5028812;28;20029;-76
2022/01/26 18:50:43;;;;;;;47.17;29.05;;;2.40;99.90;;;;;;5113804;28;20035;-75
2022/01/26 18:53:09;;;;;;;50.97;32.10;;;2.40;99.90;;;;;;5132479;28;20027;-75
2022/01/26 18:55:35;;;;;;;51.33;31.30;;;2.50;99.90;;;;;;5132557;28;20027;-76
2022/01/26 18:58:01;;;;;;;60.20;33.80;;;2.50;99.90;;;;;;5113917;28;20079;-72
2022/01/26 19:00:27;;;;;;;53.65;33.67;;;2.50;99.90;;;;;;5132087;27;20391;-73
2022/01/26 19:02:53;;;;;;;50.50;32.47;;;2.50;99.90;;;;;;5132380;28;20029;-75
2022/01/26 19:05:19;;;;;;;55.38;31.10;;;2.50;99.90;;;;;;5116014;27;20461;-73
2022/01/26 19:07:45;;;;;;;57.40;34.72;;;2.50;99.90;;;;;;5135467;27;20080;-75
2022/01/26 19:10:12;;;;;;;61.53;37.03;;;2.60;99.90;;;;;;5116788;27;20030;-75
2022/01/26 19:12:39;;;;;;;57.80;35.33;;;2.60;99.90;;;;;;5135353;27;20055;-75
2022/01/26 19:15:11;;;;;;;61.13;34.75;;;2.60;99.90;;;;;;5099195;27;20477;-75
2022/01/26 19:17:49;;;;;;;61.25;34.30;;;2.60;99.90;;;;;;5134430;27;20116;-75
2022/01/26 19:20:34;;;;;;;61.60;36.35;;;2.60;99.90;;;;;;5134131;27;20023;-74
2022/01/26 19:25:55;;;;;;;57.42;37.10;;;2.60;99.90;;;;;;5084888;28;20031;-76
2022/01/26 19:28:27;;;;;;;64.75;39.80;;;2.60;99.90;;;;;;5089653;28;20095;-77